Time;durP1;ratioP1;P1;durP2;ratioP2;P2;SDS_P1;SDS_P2;PMS_P1;PMS_P2;Temp;Humidity;BMP_temperature;BMP_pressure;BME280_temperature;BME280_humidity;BME280_pressure;Samples;Min_cycle;Max_cycle;Signal;HPM_P1;HPM_P2
2023/12/10 00:00:35;;;;;;;24.50;15.40;;;;;;;-3.08;87.45;95848.48;108795;1273;22520;-80
2023/12/10 00:03:27;;;;;;;23.70;13.80;;;;;;;-3.08;87.36;95844.88;108814;1273;22514;-80
2023/12/10 00:05:56;;;;;;;17.10;10.60;;;;;;;-3.11;87.43;95843.64;108842;1273;23263;-80
2023/12/10 00:08:30;;;;;;;23.00;14.00;;;;;;;-3.11;87.47;95836.44;108818;1266;22523;-79
2023/12/10 00:11:01;;;;;;;23.40;13.60;;;;;;;-3.09;87.45;95826.30;108838;1266;22528;-80
2023/12/10 00:13:30;;;;;;;21.10;11.80;;;;;;;-3.04;87.70;95831.44;108834;1251;22523;-80
2023/12/10 00:15:58;;;;;;;18.90;12.20;;;;;;;-2.98;87.67;95826.37;108758;1273;23454;-80
2023/12/10 00:18:28;;;;;;;18.90;11.70;;;;;;;-2.99;87.68;95824.26;108826;1268;22670;-79
2023/12/10 00:20:56;;;;;;;18.60;10.60;;;;;;;-2.99;87.79;95822.67;108892;1266;25446;-80
2023/12/10 00:23:25;;;;;;;18.30;10.80;;;;;;;-2.92;87.81;95818.83;108868;1270;23223;-80
2023/12/10 00:25:53;;;;;;;18.40;10.50;;;;;;;-2.85;87.97;95809.70;108803;1266;22531;-80
2023/12/10 00:28:22;;;;;;;17.20;10.10;;;;;;;-2.77;88.00;95802.49;108774;1266;22540;-80
2023/12/10 00:30:52;;;;;;;21.10;10.90;;;;;;;-2.70;87.96;95801.13;108814;1273;22517;-80
2023/12/10 00:33:21;;;;;;;17.70;10.30;;;;;;;-2.67;87.89;95804.38;108806;1266;22539;-80
2023/12/10 00:35:50;;;;;;;15.70;9.40;;;;;;;-2.63;87.90;95802.39;108799;1266;25485;-80
2023/12/10 00:38:24;;;;;;;19.30;12.00;;;;;;;-2.54;87.96;95802.22;108804;1266;25341;-80
2023/12/10 00:40:53;;;;;;;18.00;11.50;;;;;;;-2.46;87.95;95806.13;108874;1266;22542;-80
2023/12/10 00:43:28;;;;;;;18.20;10.60;;;;;;;-2.44;87.87;95803.50;108909;1269;22534;-80
2023/12/10 00:45:57;;;;;;;20.40;12.10;;;;;;;-2.45;87.83;95806.02;108897;1273;24213;-80
2023/12/10 00:48:26;;;;;;;16.40;9.80;;;;;;;-2.47;87.55;95804.86;108873;1273;22561;-80
2023/12/10 00:50:55;;;;;;;21.10;12.20;;;;;;;-2.50;87.39;95798.67;108854;1266;24198;-80
2023/12/10 00:53:23;;;;;;;16.30;10.40;;;;;;;-2.51;87.58;95797.61;108887;1273;22585;-80
2023/12/10 00:55:52;;;;;;;19.70;11.50;;;;;;;-2.51;87.46;95798.48;108976;1273;22800;-80
2023/12/10 00:58:20;;;;;;;18.20;10.80;;;;;;;-2.53;87.44;95795.98;108894;1273;22476;-80
2023/12/10 01:00:51;;;;;;;19.10;10.30;;;;;;;-2.53;87.44;95797.42;108841;1273;22548;-80
2023/12/10 01:03:19;;;;;;;17.90;11.30;;;;;;;-2.54;87.51;95794.83;108836;1273;22574;-80
2023/12/10 01:05:49;;;;;;;21.60;12.90;;;;;;;-2.56;87.55;95796.09;108800;1267;25386;-80
2023/12/10 01:08:18;;;;;;;18.20;11.40;;;;;;;-2.56;87.49;95794.33;108871;1273;25297;-80
2023/12/10 01:10:48;;;;;;;18.00;10.20;;;;;;;-2.54;87.66;95790.28;108884;1272;22513;-80
2023/12/10 01:13:16;;;;;;;17.50;9.70;;;;;;;-2.48;87.61;95779.16;108843;1273;24244;-80
2023/12/10 01:15:46;;;;;;;16.70;10.30;;;;;;;-2.38;87.64;95777.14;108856;1273;24346;-80
2023/12/10 01:18:15;;;;;;;17.20;10.60;;;;;;;-2.31;87.85;95773.34;108868;1273;24958;-80
2023/12/10 01:20:44;;;;;;;15.40;8.00;;;;;;;-2.26;87.69;95765.88;108888;1273;24225;-80
2023/12/10 01:23:14;;;;;;;16.80;11.20;;;;;;;-2.24;87.67;95756.21;108856;1270;22507;-80
2023/12/10 01:25:45;;;;;;;14.30;8.10;;;;;;;-2.20;87.65;95739.31;108890;1273;22595;-80
2023/12/10 01:28:16;;;;;;;16.00;8.70;;;;;;;-2.04;88.01;95731.23;108830;1273;25423;-80
2023/12/10 01:30:47;;;;;;;14.90;9.40;;;;;;;-1.86;87.75;95727.42;108786;1269;24237;-80
2023/12/10 01:33:15;;;;;;;13.20;7.60;;;;;;;-1.76;87.54;95726.00;108819;1266;22503;-80
2023/12/10 01:35:43;;;;;;;16.80;9.50;;;;;;;-1.76;87.40;95733.95;108856;1273;22635;-80
2023/12/10 01:38:14;;;;;;;14.40;9.80;;;;;;;-1.82;87.13;95734.15;108887;1269;22543;-80
2023/12/10 01:40:44;;;;;;;14.60;8.30;;;;;;;-1.83;87.19;95740.36;108830;1273;24310;-80
2023/12/10 01:43:17;;;;;;;15.60;10.00;;;;;;;-1.83;87.23;95748.27;108887;1249;22517;-80
2023/12/10 01:45:53;;;;;;;15.80;8.60;;;;;;;-1.85;87.16;95745.10;108834;1269;22533;-80
2023/12/10 01:48:23;;;;;;;12.60;6.90;;;;;;;-1.88;86.94;95745.83;108790;1273;22692;-80
2023/12/10 01:50:53;;;;;;;13.20;7.20;;;;;;;-1.85;87.31;95743.18;108768;1270;22602;-80
2023/12/10 01:53:22;;;;;;;14.70;9.20;;;;;;;-1.82;86.98;95745.27;108858;1266;24735;-80
2023/12/10 01:55:51;;;;;;;16.90;10.50;;;;;;;-1.81;86.61;95744.39;108927;1273;24980;-80
2023/12/10 01:58:20;;;;;;;14.30;8.60;;;;;;;-1.86;86.79;95740.46;108869;1273;22491;-79
2023/12/10 02:00:51;;;;;;;10.80;6.70;;;;;;;-1.91;86.73;95738.31;108843;1266;22521;-80
2023/12/10 02:03:19;;;;;;;14.20;8.20;;;;;;;-1.86;87.06;95733.29;108804;1266;25424;-80
2023/12/10 02:05:48;;;;;;;12.40;6.40;;;;;;;-1.82;86.72;95726.21;108837;1272;22571;-80
2023/12/10 02:08:22;;;;;;;14.00;7.80;;;;;;;-1.77;86.88;95725.83;108885;1273;22111;-80
2023/12/10 02:10:50;;;;;;;13.20;7.30;;;;;;;-1.73;86.67;95732.78;108843;1266;22548;-80
2023/12/10 02:13:19;;;;;;;11.10;6.80;;;;;;;-1.66;86.39;95728.09;108851;1271;22900;-80
2023/12/10 02:15:47;;;;;;;12.20;6.30;;;;;;;-1.57;86.69;95738.02;108827;1272;22554;-80
2023/12/10 02:18:19;;;;;;;14.70;8.50;;;;;;;-1.59;86.17;95734.38;108827;1269;22880;-80
2023/12/10 02:20:48;;;;;;;7.50;4.40;;;;;;;-1.63;86.32;95722.06;108782;1272;24251;-80
2023/12/10 02:23:33;;;;;;;12.10;5.80;;;;;;;-1.62;86.35;95708.68;108884;1270;22550;-79
2023/12/10 02:26:02;;;;;;;11.00;5.70;;;;;;;-1.56;86.60;95709.25;108813;1266;22521;-80
2023/12/10 02:28:30;;;;;;;14.30;8.60;;;;;;;-1.50;86.34;95698.42;108808;1266;22584;-80
2023/12/10 02:30:59;;;;;;;13.00;7.70;;;;;;;-1.48;86.23;95701.98;108829;1251;22644;-80
2023/12/10 02:33:30;;;;;;;12.60;8.00;;;;;;;-1.52;86.29;95692.81;108759;1273;22612;-80
2023/12/10 02:36:00;;;;;;;13.30;7.30;;;;;;;-1.61;86.15;95691.15;108806;1266;22575;-80
2023/12/10 02:38:29;;;;;;;16.00;8.90;;;;;;;-1.69;86.21;95686.45;108837;1272;22486;-79
2023/12/10 02:40:58;;;;;;;11.60;6.90;;;;;;;-1.75;85.98;95687.33;108815;1269;23693;-80
2023/12/10 02:43:28;;;;;;;17.10;9.60;;;;;;;-1.76;86.35;95688.02;108846;1266;22531;-79
2023/12/10 02:45:56;;;;;;;13.10;6.60;;;;;;;-1.75;86.25;95688.14;108844;1273;23895;-80
2023/12/10 02:48:25;;;;;;;16.80;8.90;;;;;;;-1.81;85.86;95687.02;108828;1273;22594;-80
2023/12/10 02:50:56;;;;;;;14.40;8.30;;;;;;;-1.89;85.87;95690.78;108794;1266;25301;-80
2023/12/10 02:53:24;;;;;;;16.40;9.60;;;;;;;-1.95;86.18;95693.67;108858;1273;22559;-80
2023/12/10 02:56:41;;;;;;;13.50;7.80;;;;;;;-1.91;86.21;95694.36;108809;1273;22626;-80
2023/12/10 02:59:12;;;;;;;11.90;7.20;;;;;;;-1.73;86.41;95688.14;108781;1266;23653;-79
2023/12/10 03:01:40;;;;;;;14.10;8.00;;;;;;;-1.68;86.49;95691.43;108807;1266;22514;-80
2023/12/10 03:04:08;;;;;;;13.60;8.20;;;;;;;-1.69;86.31;95694.23;108835;1273;25955;-80
2023/12/10 03:06:37;;;;;;;13.80;8.10;;;;;;;-1.72;86.24;95691.84;108801;1273;23361;-80
2023/12/10 03:09:08;;;;;;;12.90;7.90;;;;;;;-1.78;86.11;95694.77;108697;1272;158586;-79
2023/12/10 03:11:36;;;;;;;12.50;7.60;;;;;;;-1.79;86.16;95692.48;108835;1273;22530;-80
2023/12/10 03:14:07;;;;;;;12.80;7.70;;;;;;;-1.80;86.34;95692.16;108871;1273;25264;-80
2023/12/10 03:16:38;;;;;;;12.40;9.30;;;;;;;-1.81;86.12;95694.79;108789;1273;23319;-80
2023/12/10 03:19:08;;;;;;;11.20;6.90;;;;;;;-1.85;86.11;95695.14;108790;1270;22539;-79
2023/12/10 03:21:37;;;;;;;13.60;8.40;;;;;;;-1.85;86.24;95691.79;108773;1251;22555;-80
2023/12/10 03:24:06;;;;;;;13.90;8.50;;;;;;;-1.86;86.29;95686.28;108851;1266;22681;-80
2023/12/10 03:26:33;;;;;;;;;;;;;;;-1.87;86.13;95697.20;108861;1273;22556;-80
2023/12/10 03:29:06;;;;;;;12.70;7.10;;;;;;;-1.91;86.11;95702.57;108837;1273;25257;-79
2023/12/10 03:31:37;;;;;;;13.30;8.30;;;;;;;-1.94;86.21;95698.34;108795;1272;22524;-80
2023/12/10 03:34:06;;;;;;;13.50;7.80;;;;;;;-1.99;86.25;95691.98;108861;1266;23466;-80
2023/12/10 03:36:34;;;;;;;9.80;5.90;;;;;;;-1.98;86.04;95695.65;108874;1251;22563;-80
2023/12/10 03:39:05;;;;;;;12.00;6.50;;;;;;;-1.93;86.53;95685.85;108845;1273;25278;-80
2023/12/10 03:41:34;;;;;;;13.20;8.00;;;;;;;-1.91;86.42;95678.90;108898;1270;22560;-80
2023/12/10 03:44:04;;;;;;;10.20;6.60;;;;;;;-1.89;86.50;95685.17;108783;1273;23283;-80
2023/12/10 03:46:35;;;;;;;10.90;6.70;;;;;;;-1.87;86.52;95685.38;108789;1273;22520;-80
2023/12/10 03:49:04;;;;;;;11.90;7.10;;;;;;;-1.77;86.64;95674.90;108840;1273;22507;-80
2023/12/10 03:51:35;;;;;;;12.40;7.20;;;;;;;-1.66;86.85;95678.20;108822;1270;22548;-80
2023/12/10 03:54:06;;;;;;;10.60;6.60;;;;;;;-1.64;86.54;95677.77;108870;1272;25423;-80
2023/12/10 03:56:34;;;;;;;11.50;7.10;;;;;;;-1.68;86.67;95673.88;108816;1266;22536;-80
2023/12/10 03:59:06;;;;;;;8.60;5.90;;;;;;;-1.69;86.57;95663.05;108818;1269;23844;-80
2023/12/10 04:01:34;;;;;;;11.20;7.00;;;;;;;-1.67;86.41;95669.35;108816;1266;22573;-80
2023/12/10 04:04:05;;;;;;;12.00;7.10;;;;;;;-1.67;86.34;95674.80;108863;1273;24270;-79
2023/12/10 04:06:37;;;;;;;13.70;8.00;;;;;;;-1.66;86.55;95678.09;108823;1273;22541;-79
2023/12/10 04:09:06;;;;;;;12.50;7.60;;;;;;;-1.66;86.54;95687.17;108852;1273;24206;-79
2023/12/10 04:11:35;;;;;;;12.60;7.50;;;;;;;-1.63;86.62;95683.15;108841;1273;22521;-79
2023/12/10 04:14:07;;;;;;;11.00;6.60;;;;;;;-1.62;86.32;95683.17;108822;1273;22624;-79
2023/12/10 04:16:39;;;;;;;12.80;8.00;;;;;;;-1.59;86.12;95679.80;108834;1266;22509;-79
2023/12/10 04:19:07;;;;;;;12.80;8.00;;;;;;;-1.60;86.23;95675.98;108839;1266;22486;-79
2023/12/10 04:21:36;;;;;;;13.20;7.90;;;;;;;-1.61;86.34;95677.84;108829;1273;24224;-79
2023/12/10 04:24:07;;;;;;;11.80;8.00;;;;;;;-1.64;86.34;95679.13;108798;1273;22488;-79
2023/12/10 04:26:35;;;;;;;12.60;7.60;;;;;;;-1.66;86.23;95680.64;108855;1273;23739;-80
2023/12/10 04:29:03;;;;;;;12.90;8.20;;;;;;;-1.64;86.53;95674.09;108818;1269;22539;-79
2023/12/10 04:31:34;;;;;;;11.30;6.50;;;;;;;-1.60;86.21;95681.07;108781;1273;22516;-79
2023/12/10 04:34:02;;;;;;;10.40;5.90;;;;;;;-1.57;86.45;95688.00;108822;1273;23363;-79
2023/12/10 04:36:30;;;;;;;9.30;6.10;;;;;;;-1.54;86.16;95695.17;108815;1273;22664;-79
2023/12/10 04:38:58;;;;;;;10.00;5.90;;;;;;;-1.49;86.10;95691.33;108837;1273;25243;-79
2023/12/10 04:41:27;;;;;;;9.90;6.20;;;;;;;-1.48;85.94;95692.91;108859;1273;22533;-79
2023/12/10 04:43:55;;;;;;;11.00;6.70;;;;;;;-1.53;85.94;95699.04;108844;1273;24230;-79
2023/12/10 04:46:23;;;;;;;11.60;6.50;;;;;;;-1.58;85.90;95699.58;108870;1266;22936;-79
2023/12/10 04:48:52;;;;;;;12.10;7.40;;;;;;;-1.59;85.84;95711.83;108798;1272;25398;-79
2023/12/10 04:51:21;;;;;;;13.60;7.70;;;;;;;-1.59;86.14;95707.77;108835;1273;22625;-79
2023/12/10 04:53:49;;;;;;;10.90;6.50;;;;;;;-1.63;86.11;95700.61;108835;1273;22537;-79
2023/12/10 04:56:20;;;;;;;10.70;6.80;;;;;;;-1.65;86.09;95700.04;108898;1270;22584;-79
2023/12/10 04:58:50;;;;;;;11.30;6.80;;;;;;;-1.69;86.14;95705.08;108820;1266;24323;-79
2023/12/10 05:01:19;;;;;;;10.00;6.70;;;;;;;-1.71;86.09;95708.92;108827;1273;22527;-79
2023/12/10 05:03:50;;;;;;;11.20;6.60;;;;;;;-1.73;86.24;95707.33;108817;1272;22925;-79
2023/12/10 05:06:19;;;;;;;10.70;6.60;;;;;;;-1.74;86.51;95704.18;108863;1273;22527;-79
2023/12/10 05:08:47;;;;;;;11.60;7.60;;;;;;;-1.68;86.57;95704.39;108851;1269;22609;-79
2023/12/10 05:11:19;;;;;;;13.30;7.50;;;;;;;-1.70;86.30;95702.55;108804;1270;22534;-79
2023/12/10 05:13:47;;;;;;;6.60;4.60;;;;;;;-1.67;86.45;95707.73;108883;1273;22528;-79
2023/12/10 05:16:16;;;;;;;12.20;7.30;;;;;;;-1.58;86.28;95710.09;108798;1273;23952;-79
2023/12/10 05:18:44;;;;;;;12.60;8.10;;;;;;;-1.55;86.63;95718.69;108842;1266;25463;-79
2023/12/10 05:21:14;;;;;;;10.20;6.50;;;;;;;-1.57;86.37;95722.90;108817;1267;24739;-79
2023/12/10 05:23:43;;;;;;;11.50;7.20;;;;;;;-1.56;86.24;95718.02;108824;1274;22511;-79
2023/12/10 05:26:11;;;;;;;11.10;7.00;;;;;;;-1.52;86.62;95717.25;108881;1273;22517;-79
2023/12/10 05:28:41;;;;;;;12.70;7.10;;;;;;;-1.47;86.51;95711.48;108824;1270;22520;-79
2023/12/10 05:31:10;;;;;;;11.90;6.90;;;;;;;-1.44;86.22;95728.08;108862;1273;24240;-79
2023/12/10 05:33:39;;;;;;;12.60;7.60;;;;;;;-1.45;86.40;95729.00;108868;1266;22521;-80
2023/12/10 05:36:10;;;;;;;11.40;7.30;;;;;;;-1.46;86.30;95724.95;108887;1269;22548;-79
2023/12/10 05:38:40;;;;;;;15.30;8.00;;;;;;;-1.49;86.07;95725.89;108811;1272;22510;-79
2023/12/10 05:41:09;;;;;;;25.40;14.40;;;;;;;-1.52;86.33;95726.97;108872;1272;22525;-79
2023/12/10 05:43:37;;;;;;;19.10;10.50;;;;;;;-1.55;86.55;95730.95;108832;1274;23157;-79
2023/12/10 05:46:09;;;;;;;6.90;4.10;;;;;;;-1.58;86.27;95730.91;108830;1273;22686;-79
2023/12/10 05:48:38;;;;;;;10.70;6.50;;;;;;;-1.58;86.43;95735.28;108826;1273;22562;-79
2023/12/10 05:51:10;;;;;;;15.30;7.80;;;;;;;-1.56;86.29;95731.73;108801;1267;22524;-79
2023/12/10 05:53:39;;;;;;;11.30;7.00;;;;;;;-1.56;86.60;95736.11;108852;1273;24032;-79
2023/12/10 05:56:11;;;;;;;12.20;6.90;;;;;;;-1.56;86.26;95733.66;108838;1266;22543;-80
2023/12/10 05:58:39;;;;;;;12.60;8.10;;;;;;;-1.56;86.55;95735.81;108828;1273;25077;-79
2023/12/10 06:01:10;;;;;;;11.90;7.10;;;;;;;-1.54;86.45;95744.23;108871;1272;22562;-80
2023/12/10 06:03:38;;;;;;;12.50;7.60;;;;;;;-1.55;86.40;95752.86;108879;1273;24300;-79
2023/12/10 06:06:08;;;;;;;12.20;8.20;;;;;;;-1.57;86.22;95746.38;108857;1269;22561;-80
2023/12/10 06:08:38;;;;;;;13.50;9.10;;;;;;;-1.60;86.41;95745.54;108821;1273;22516;-79
2023/12/10 06:11:08;;;;;;;21.00;12.20;;;;;;;-1.62;86.49;95750.37;108845;1269;22622;-79
2023/12/10 06:13:37;;;;;;;24.60;14.70;;;;;;;-1.64;86.40;95754.64;108855;1269;24260;-79
2023/12/10 06:16:07;;;;;;;18.50;10.50;;;;;;;-1.66;86.43;95758.69;108857;1273;24181;-79
2023/12/10 06:18:36;;;;;;;14.00;8.80;;;;;;;-1.65;86.55;95762.70;108840;1272;22527;-78
2023/12/10 06:21:07;;;;;;;9.40;5.40;;;;;;;-1.62;86.90;95770.02;108838;1273;22628;-79
2023/12/10 06:23:36;;;;;;;12.40;7.20;;;;;;;-1.58;86.91;95769.55;108790;1273;22465;-79
2023/12/10 06:26:10;;;;;;;9.40;5.50;;;;;;;-1.46;86.60;95770.92;108843;1251;22516;-79
2023/12/10 06:28:41;;;;;;;11.10;6.90;;;;;;;-1.39;86.52;95772.19;108843;1273;22539;-78
2023/12/10 06:31:10;;;;;;;10.10;5.20;;;;;;;-1.38;86.23;95778.46;108837;1270;25243;-79
2023/12/10 06:33:44;;;;;;;13.60;7.40;;;;;;;-1.40;85.99;95780.02;108818;1272;25291;-79
2023/12/10 06:36:13;;;;;;;8.70;4.50;;;;;;;-1.43;86.23;95785.91;108813;1267;25482;-79
2023/12/10 06:38:46;;;;;;;9.80;5.80;;;;;;;-1.44;86.37;95794.61;108823;1273;23212;-79
2023/12/10 06:41:14;;;;;;;10.60;6.10;;;;;;;-1.42;86.13;95799.71;108847;1273;22523;-80
2023/12/10 06:43:43;;;;;;;10.60;5.70;;;;;;;-1.37;86.10;95805.67;108824;1273;22573;-80
2023/12/10 06:46:13;;;;;;;11.00;5.90;;;;;;;-1.38;86.14;95808.25;108862;1273;22915;-79
2023/12/10 06:48:42;;;;;;;11.60;7.30;;;;;;;-1.37;86.04;95804.37;108808;1273;25291;-79
2023/12/10 06:51:11;;;;;;;10.40;6.80;;;;;;;-1.34;86.25;95803.10;108877;1273;22517;-79
2023/12/10 06:53:40;;;;;;;12.20;7.70;;;;;;;-1.31;86.13;95811.90;108851;1272;22520;-79
2023/12/10 06:56:11;;;;;;;11.70;6.60;;;;;;;-1.29;85.80;95814.65;108857;1273;22534;-80
2023/12/10 06:58:39;;;;;;;11.90;7.00;;;;;;;-1.26;86.15;95814.07;108849;1274;24089;-79
2023/12/10 07:01:08;;;;;;;15.40;8.00;;;;;;;-1.22;86.33;95813.54;108818;1273;23834;-79
2023/12/10 07:03:37;;;;;;;11.80;7.70;;;;;;;-1.17;85.95;95809.37;108850;1266;22525;-80
2023/12/10 07:06:07;;;;;;;10.00;7.10;;;;;;;-1.16;85.96;95810.23;108878;1272;22525;-80
2023/12/10 07:08:35;;;;;;;11.10;6.90;;;;;;;-1.18;85.88;95806.23;108855;1272;22521;-79
2023/12/10 07:11:10;;;;;;;10.80;6.80;;;;;;;-1.20;85.82;95798.38;108803;1250;22524;-79
2023/12/10 07:13:41;;;;;;;12.60;7.30;;;;;;;-1.21;85.96;95803.52;108870;1263;24300;-79
2023/12/10 07:16:15;;;;;;;11.30;6.80;;;;;;;-1.20;85.89;95804.85;108864;1266;22563;-80
2023/12/10 07:18:43;;;;;;;11.90;7.40;;;;;;;-1.20;86.01;95812.38;108880;1272;22517;-79
2023/12/10 07:21:12;;;;;;;13.70;7.10;;;;;;;-1.18;85.92;95809.76;108777;1273;23685;-79
2023/12/10 07:23:40;;;;;;;13.00;6.90;;;;;;;-1.17;86.23;95812.54;108856;1272;25424;-79
2023/12/10 07:26:09;;;;;;;14.10;8.80;;;;;;;-1.18;85.75;95813.88;108871;1273;22634;-79
2023/12/10 07:28:42;;;;;;;8.90;5.80;;;;;;;-1.15;86.25;95817.38;108781;1273;25733;-79
2023/12/10 07:31:10;;;;;;;11.90;8.10;;;;;;;-1.09;86.51;95814.89;108798;1273;24295;-79
2023/12/10 07:33:39;;;;;;;;;;;;;;;-1.04;86.44;95827.94;108864;1266;22494;-80
2023/12/10 07:36:10;;;;;;;12.40;8.00;;;;;;;-1.01;86.52;95828.64;108917;1269;24887;-79
2023/12/10 07:38:39;;;;;;;12.80;7.10;;;;;;;-0.97;86.70;95839.77;108928;1272;25904;-79
2023/12/10 07:41:10;;;;;;;12.50;8.30;;;;;;;-0.94;86.63;95844.31;108869;1274;23810;-79
2023/12/10 07:43:39;;;;;;;14.40;9.40;;;;;;;-0.91;87.24;95846.63;108924;1268;23833;-79
2023/12/10 07:46:08;;;;;;;13.80;9.40;;;;;;;-0.87;87.11;95851.76;108892;1271;22604;-79
2023/12/10 07:48:38;;;;;;;13.70;8.50;;;;;;;-0.83;87.44;95862.44;108904;1273;22687;-79
2023/12/10 07:51:08;;;;;;;15.30;9.10;;;;;;;-0.77;87.50;95862.66;108833;1269;22521;-80
2023/12/10 07:53:41;;;;;;;10.40;7.20;;;;;;;-0.74;87.57;95875.13;108892;1269;23814;-80
2023/12/10 07:56:14;;;;;;;15.20;9.40;;;;;;;-0.70;87.68;95881.40;108863;1273;22517;-80
2023/12/10 07:58:43;;;;;;;16.20;9.60;;;;;;;-0.66;87.82;95888.27;108844;1272;24192;-79
2023/12/10 08:01:11;;;;;;;13.40;8.10;;;;;;;-0.61;87.93;95897.86;108856;1273;22529;-80
2023/12/10 08:03:40;;;;;;;14.70;8.90;;;;;;;-0.57;87.94;95898.61;108821;1274;23794;-80
2023/12/10 08:06:09;;;;;;;11.30;6.50;;;;;;;-0.55;87.83;95900.67;108827;1269;22596;-80
2023/12/10 08:08:40;;;;;;;13.10;7.70;;;;;;;-0.51;88.12;95911.16;108895;1271;23243;-79
2023/12/10 08:11:08;;;;;;;13.00;7.50;;;;;;;-0.48;87.95;95913.64;108866;1273;22531;-80
2023/12/10 08:13:38;;;;;;;14.70;9.10;;;;;;;-0.47;88.00;95917.06;108876;1273;22664;-80
2023/12/10 08:16:10;;;;;;;11.20;7.70;;;;;;;-0.47;88.10;95926.08;108853;1273;22528;-80
2023/12/10 08:18:39;;;;;;;10.90;6.20;;;;;;;-0.46;87.94;95928.81;108842;1273;24221;-79
2023/12/10 08:21:13;;;;;;;9.00;4.90;;;;;;;-0.46;87.79;95938.60;108804;1266;22545;-80
2023/12/10 08:23:41;;;;;;;13.10;8.40;;;;;;;-0.45;88.04;95944.03;108853;1269;24176;-80
2023/12/10 08:26:13;;;;;;;14.70;8.80;;;;;;;-0.47;87.85;95943.21;108916;1273;22905;-80
2023/12/10 08:28:42;;;;;;;14.80;9.70;;;;;;;-0.45;88.09;95943.14;108829;1273;22547;-80
2023/12/10 08:31:12;;;;;;;10.20;5.60;;;;;;;-0.46;87.79;95952.18;108802;1273;22577;-80
2023/12/10 08:33:44;;;;;;;19.70;10.80;;;;;;;-0.48;87.76;95961.36;108885;1270;25450;-80
2023/12/10 08:36:13;;;;;;;14.80;7.50;;;;;;;-0.52;87.83;95959.30;108869;1270;22538;-80
2023/12/10 08:38:41;;;;;;;13.30;6.90;;;;;;;-0.57;87.97;95964.12;108821;1273;22521;-80
2023/12/10 08:41:10;;;;;;;16.80;10.40;;;;;;;-0.56;87.92;95967.80;108921;1250;22503;-80
2023/12/10 08:43:41;;;;;;;11.70;7.90;;;;;;;-0.55;88.18;95968.04;108868;1273;22540;-80
2023/12/10 08:46:10;;;;;;;14.20;7.70;;;;;;;-0.59;88.62;95972.51;108909;1273;22533;-80
2023/12/10 08:48:41;;;;;;;12.50;8.30;;;;;;;-0.64;88.94;95969.23;108853;1273;22517;-80
2023/12/10 08:51:10;;;;;;;16.10;9.10;;;;;;;-0.69;89.25;95966.44;108864;1269;25259;-80
2023/12/10 08:53:39;;;;;;;12.10;7.70;;;;;;;-0.73;89.41;95968.88;108856;1273;24203;-80
2023/12/10 08:56:09;;;;;;;16.20;10.10;;;;;;;-0.72;89.69;95970.52;108869;1273;22628;-80
2023/12/10 08:58:40;;;;;;;17.50;10.80;;;;;;;-0.70;89.87;95971.45;108856;1273;25452;-80
2023/12/10 09:01:09;;;;;;;15.10;8.90;;;;;;;-0.68;89.78;95974.64;108813;1273;22525;-80
2023/12/10 09:03:38;;;;;;;16.70;10.30;;;;;;;-0.69;90.05;95971.61;108838;1273;24203;-80
2023/12/10 09:06:09;;;;;;;12.60;7.60;;;;;;;-0.67;90.31;95972.60;108808;1273;22840;-80
2023/12/10 09:08:41;;;;;;;12.10;7.20;;;;;;;-0.60;90.38;95971.38;108817;1270;24866;-80
2023/12/10 09:11:09;;;;;;;12.70;7.80;;;;;;;-0.49;90.51;95963.42;108844;1272;22659;-81
2023/12/10 09:13:40;;;;;;;12.30;7.30;;;;;;;-0.40;90.11;95954.29;108831;1273;25408;-80
2023/12/10 09:16:11;;;;;;;13.20;7.50;;;;;;;-0.30;90.32;95954.25;108863;1273;22514;-80
2023/12/10 09:18:40;;;;;;;12.10;6.80;;;;;;;-0.21;89.73;95949.61;108894;1273;22584;-80
2023/12/10 09:21:10;;;;;;;13.00;8.00;;;;;;;-0.12;89.64;95955.96;108881;1273;22652;-80
2023/12/10 09:23:43;;;;;;;13.30;9.00;;;;;;;-0.07;89.18;95954.34;108866;1274;23917;-80
2023/12/10 09:26:14;;;;;;;14.00;8.70;;;;;;;-0.05;89.14;95951.89;108871;1273;22553;-81
2023/12/10 09:28:52;;;;;;;15.40;8.40;;;;;;;-0.05;88.87;95957.73;108869;1267;22533;-80
2023/12/10 09:31:21;;;;;;;12.40;7.90;;;;;;;-0.06;88.70;95939.73;108935;1269;22580;-81
2023/12/10 09:33:51;;;;;;;13.20;7.70;;;;;;;-0.06;88.34;95937.55;108853;1271;22657;-81
2023/12/10 09:36:20;;;;;;;11.90;7.50;;;;;;;-0.05;88.78;95939.80;108867;1273;23166;-80
2023/12/10 09:38:50;;;;;;;14.40;8.50;;;;;;;-0.06;88.05;95939.94;108867;1269;22886;-80
2023/12/10 09:41:18;;;;;;;14.10;8.00;;;;;;;-0.07;88.07;95935.07;108835;1273;24209;-81
2023/12/10 09:43:50;;;;;;;13.40;7.30;;;;;;;-0.08;88.23;95931.83;108893;1273;22524;-81
2023/12/10 09:46:21;;;;;;;10.50;6.60;;;;;;;-0.10;88.07;95940.95;108888;1250;22533;-80
2023/12/10 09:48:50;;;;;;;12.00;7.20;;;;;;;-0.10;88.37;95934.64;108842;1273;23862;-80
2023/12/10 09:51:18;;;;;;;;;;;;;;;-0.12;88.45;95944.62;108833;1273;22500;-81
2023/12/10 09:53:47;;;;;;;13.90;8.50;;;;;;;-0.12;88.52;95944.56;108868;1273;24016;-81
2023/12/10 09:56:16;;;;;;;13.30;8.00;;;;;;;-0.10;88.76;95945.69;108890;1267;23311;-80
2023/12/10 09:58:46;;;;;;;12.40;7.40;;;;;;;-0.08;89.02;95948.06;108789;1273;25600;-80
2023/12/10 10:01:15;;;;;;;14.90;8.70;;;;;;;-0.07;88.89;95937.90;108905;1273;22636;-80
2023/12/10 10:03:46;;;;;;;15.20;9.60;;;;;;;-0.07;89.06;95931.69;108803;1273;22577;-80
2023/12/10 10:06:15;;;;;;;14.70;8.40;;;;;;;-0.07;88.88;95932.58;108833;1265;22529;-81
2023/12/10 10:08:45;;;;;;;12.80;8.70;;;;;;;-0.05;89.03;95944.08;108861;1273;22695;-80
2023/12/10 10:11:16;;;;;;;12.30;8.20;;;;;;;-0.04;88.94;95938.52;108833;1266;23699;-81
2023/12/10 10:13:53;;;;;;;12.30;8.40;;;;;;;-0.03;89.03;95937.98;108885;1273;24256;-81
2023/12/10 10:16:26;;;;;;;16.50;8.30;;;;;;;-0.00;88.95;95930.06;108889;1268;23927;-81
2023/12/10 10:18:55;;;;;;;11.70;7.20;;;;;;;0.02;89.38;95937.88;108834;1273;22595;-80
2023/12/10 10:21:29;;;;;;;14.20;8.50;;;;;;;0.02;89.52;95934.48;108801;1267;22557;-80
2023/12/10 10:23:59;;;;;;;11.80;8.20;;;;;;;0.04;89.19;95936.04;108883;1272;22574;-81
2023/12/10 10:26:27;;;;;;;14.70;9.00;;;;;;;0.09;89.39;95932.38;108853;1269;22553;-81
2023/12/10 10:28:56;;;;;;;13.10;8.20;;;;;;;0.10;89.35;95933.23;108857;1273;23408;-81
2023/12/10 10:31:26;;;;;;;13.80;7.00;;;;;;;0.12;89.52;95930.79;108885;1267;24078;-81
2023/12/10 10:33:57;;;;;;;14.50;7.70;;;;;;;0.17;89.38;95930.00;108951;1273;22605;-81
2023/12/10 10:36:29;;;;;;;13.00;7.70;;;;;;;0.20;89.34;95931.38;108844;1273;22920;-81
2023/12/10 10:38:58;;;;;;;12.00;7.60;;;;;;;0.20;89.19;95932.84;108885;1272;22528;-80
2023/12/10 10:41:31;;;;;;;10.90;7.20;;;;;;;0.21;89.30;95942.02;108876;1273;22578;-81
2023/12/10 10:44:00;;;;;;;13.60;8.90;;;;;;;0.23;89.07;95944.05;108948;1273;24180;-81
2023/12/10 10:46:32;;;;;;;11.30;7.60;;;;;;;0.27;89.07;95942.56;108890;1269;23838;-80
2023/12/10 10:49:01;;;;;;;13.40;8.30;;;;;;;0.30;89.04;95938.20;108877;1273;24188;-80
2023/12/10 10:51:34;;;;;;;14.80;9.10;;;;;;;0.32;88.89;95938.88;108872;1251;23950;-81
2023/12/10 10:54:04;;;;;;;12.20;8.00;;;;;;;0.34;88.67;95945.95;108847;1273;24250;-81
2023/12/10 10:56:35;;;;;;;14.50;8.90;;;;;;;0.35;88.82;95944.45;108873;1271;22836;-80
2023/12/10 10:59:24;;;;;;;12.20;7.60;;;;;;;0.36;88.55;95945.09;108894;1273;22569;-80
2023/12/10 11:01:53;;;;;;;10.50;7.60;;;;;;;0.36;88.53;95945.26;108881;1273;22635;-80
2023/12/10 11:04:23;;;;;;;14.80;9.40;;;;;;;0.37;88.67;95943.92;108860;1272;22518;-81
2023/12/10 11:06:53;;;;;;;15.20;9.30;;;;;;;0.41;88.44;95942.58;108873;1273;22660;-80
2023/12/10 11:09:25;;;;;;;13.10;8.00;;;;;;;0.41;88.33;95951.44;108794;1269;22537;-80
2023/12/10 11:11:54;;;;;;;12.50;7.10;;;;;;;0.42;88.50;95945.98;108859;1273;22566;-81
2023/12/10 11:14:23;;;;;;;10.00;6.50;;;;;;;0.43;88.53;95948.58;108834;1272;22630;-80
2023/12/10 11:16:59;;;;;;;12.90;8.90;;;;;;;0.44;88.52;95956.55;108937;1273;22566;-80
2023/12/10 11:19:32;;;;;;;11.40;7.50;;;;;;;0.48;88.52;95948.48;108875;1272;23256;-80
2023/12/10 11:22:02;;;;;;;10.70;7.40;;;;;;;0.52;88.35;95951.05;108869;1273;22592;-80
2023/12/10 11:24:34;;;;;;;9.40;5.40;;;;;;;0.55;88.04;95959.52;108896;1272;22607;-80
2023/12/10 11:27:12;;;;;;;10.70;6.80;;;;;;;0.59;87.40;95952.09;108829;1269;22523;-80
2023/12/10 11:29:44;;;;;;;15.50;9.60;;;;;;;0.59;87.01;95947.55;108855;1271;22531;-80
2023/12/10 11:32:12;;;;;;;;;;;;;;;0.64;87.01;95962.45;108823;1270;24267;-80